createdAt,value
2019-01-23T00:01:40.439Z,33.23
2019-01-23T00:04:08.006Z,28.40
2019-01-23T00:06:54.732Z,31.03
2019-01-23T00:09:21.821Z,31.97
2019-01-23T00:12:08.493Z,39.27
2019-01-23T00:14:55.209Z,42.17
2019-01-23T00:17:41.960Z,36.47
2019-01-23T00:20:28.617Z,27.67
2019-01-23T00:23:15.037Z,28.07
2019-01-23T00:25:42.648Z,30.07
2019-01-23T00:28:29.226Z,30.10
2019-01-23T00:31:15.971Z,30.80
2019-01-23T00:34:02.792Z,27.00
2019-01-23T00:36:49.353Z,29.80
2019-01-23T00:39:36.085Z,30.63
2019-01-23T00:42:22.637Z,31.13
2019-01-23T00:45:09.705Z,22.73
2019-01-23T00:47:56.527Z,29.57
2019-01-23T00:50:43.144Z,28.60
2019-01-23T00:53:29.801Z,32.33
2019-01-23T00:56:16.292Z,38.70
2019-01-23T00:59:02.831Z,30.77
2019-01-23T01:01:49.380Z,29.87
2019-01-23T01:04:36.037Z,31.57
2019-01-23T01:07:22.907Z,29.80
2019-01-23T01:10:10.481Z,32.10
2019-01-23T01:12:57.133Z,31.73
2019-01-23T01:15:43.974Z,32.57
2019-01-23T01:18:30.584Z,31.77
2019-01-23T01:21:17.074Z,32.30
2019-01-23T01:24:04.080Z,37.07
2019-01-23T01:26:44.237Z,33.57
2019-01-23T01:29:23.961Z,34.07
2019-01-23T01:32:03.925Z,34.67
2019-01-23T01:34:44.070Z,32.17
2019-01-23T01:37:23.724Z,32.30
2019-01-23T01:40:03.834Z,35.17
2019-01-23T01:48:44.097Z,35.80
2019-01-23T01:51:24.208Z,31.57
2019-01-23T01:54:03.869Z,34.73
2019-01-23T01:56:43.895Z,34.30
2019-01-23T01:59:23.638Z,33.60
2019-01-23T02:02:03.449Z,34.00
2019-01-23T02:04:43.542Z,31.63
2019-01-23T02:07:24.048Z,32.03
2019-01-23T02:10:03.433Z,30.80
2019-01-23T02:12:30.681Z,35.60
2019-01-23T02:15:17.713Z,35.40
2019-01-23T02:18:04.310Z,34.10
2019-01-23T02:20:31.613Z,36.23
2019-01-23T02:23:18.189Z,33.80
2019-01-23T02:25:45.176Z,36.47
2019-01-23T02:28:31.834Z,36.23
2019-01-23T02:31:18.411Z,36.30
2019-01-23T02:34:04.807Z,38.50
2019-01-23T02:36:51.328Z,33.70
2019-01-23T02:39:37.938Z,32.73
2019-01-23T02:42:05.001Z,34.37
2019-01-23T02:44:51.910Z,36.97
2019-01-23T02:47:38.765Z,33.83
2019-01-23T02:50:25.342Z,33.13
2019-01-23T02:53:12.037Z,34.67
2019-01-23T02:55:58.560Z,32.60
2019-01-23T02:58:45.238Z,34.47
2019-01-23T03:01:31.851Z,33.63
2019-01-23T03:03:59.008Z,32.93
2019-01-23T03:06:45.850Z,33.30
2019-01-23T03:09:13.095Z,34.23
2019-01-23T03:11:59.765Z,32.57
2019-01-23T03:14:46.359Z,30.77
2019-01-23T03:17:13.613Z,34.97
2019-01-23T03:20:00.252Z,33.30
2019-01-23T03:22:27.289Z,33.00
2019-01-23T03:25:06.685Z,37.60
2019-01-23T03:27:46.778Z,32.73
2019-01-23T03:30:16.584Z,32.37
2019-01-23T03:33:03.195Z,32.20
2019-01-23T03:35:49.831Z,31.13
2019-01-23T03:38:36.456Z,31.20
2019-01-23T03:41:04.068Z,33.97
2019-01-23T03:43:31.005Z,31.27
2019-01-23T03:45:58.383Z,30.43
2019-01-23T03:48:25.822Z,30.40
2019-01-23T03:50:52.677Z,31.77
2019-01-23T03:53:39.209Z,29.90
2019-01-23T03:56:06.462Z,31.20
2019-01-23T03:58:52.951Z,31.80
2019-01-23T04:01:39.860Z,31.10
2019-01-23T04:04:26.513Z,25.47
2019-01-23T04:06:53.669Z,30.03
2019-01-23T04:09:21.194Z,26.93
2019-01-23T04:11:48.217Z,27.50
2019-01-23T04:14:34.951Z,29.50
2019-01-23T04:17:21.737Z,29.53
2019-01-23T04:20:09.882Z,29.20
2019-01-23T04:22:56.485Z,26.70
2019-01-23T04:25:23.546Z,26.20
2019-01-23T04:28:12.694Z,27.50
2019-01-23T04:30:39.718Z,27.07
2019-01-23T04:33:06.788Z,28.77
2019-01-23T04:35:54.014Z,25.53
2019-01-23T04:38:40.563Z,27.00
2019-01-23T04:41:07.556Z,28.33
2019-01-23T04:43:54.466Z,25.33
2019-01-23T04:46:21.797Z,30.23
2019-01-23T04:49:08.524Z,28.00
2019-01-23T04:54:36.477Z,29.47
2019-01-23T04:57:23.042Z,28.33
2019-01-23T04:59:50.231Z,26.47
2019-01-23T05:02:37.224Z,30.27
2019-01-23T05:05:05.627Z,22.03
2019-01-23T05:07:32.756Z,28.53
2019-01-23T05:10:19.529Z,26.83
2019-01-23T05:13:06.043Z,25.07
2019-01-23T05:15:33.017Z,30.50
2019-01-23T05:18:19.742Z,28.70
2019-01-23T05:21:06.378Z,28.60
2019-01-23T05:23:33.778Z,24.63
2019-01-23T05:26:00.665Z,28.77
2019-01-23T05:28:47.429Z,24.43
2019-01-23T05:31:34.077Z,22.63
2019-01-23T05:34:20.885Z,24.80
2019-01-23T05:37:07.769Z,24.13
2019-01-23T05:39:34.778Z,25.50
2019-01-23T05:42:21.223Z,19.93
2019-01-23T05:45:07.853Z,27.80
2019-01-23T05:47:54.776Z,23.97
2019-01-23T05:50:41.381Z,23.03
2019-01-23T05:53:28.079Z,21.93
2019-01-23T05:56:14.493Z,25.23
2019-01-23T05:59:01.222Z,23.50
2019-01-23T06:01:28.257Z,23.67
2019-01-23T06:03:55.157Z,20.40
2019-01-23T06:06:41.629Z,24.90
2019-01-23T06:09:28.169Z,23.03
2019-01-23T06:12:14.812Z,23.73
2019-01-23T06:15:01.342Z,24.83
2019-01-23T06:17:48.235Z,23.10
2019-01-23T06:20:34.799Z,20.80
2019-01-23T06:23:21.469Z,24.00
2019-01-23T06:26:01.581Z,21.77
2019-01-23T06:28:28.365Z,20.73
2019-01-23T06:31:14.954Z,20.20
2019-01-23T06:34:01.357Z,22.47
2019-01-23T06:36:28.224Z,24.53
2019-01-23T06:38:55.279Z,20.37
2019-01-23T06:41:47.657Z,21.00
2019-01-23T06:44:34.133Z,18.87
2019-01-23T06:47:01.140Z,22.70
2019-01-23T06:49:47.593Z,21.57
2019-01-23T06:52:34.149Z,23.80
2019-01-23T06:55:20.690Z,24.60
2019-01-23T06:58:07.420Z,24.47
2019-01-23T07:00:34.417Z,21.00
2019-01-23T07:03:01.491Z,24.90
2019-01-23T07:05:28.593Z,22.73
2019-01-23T07:08:15.383Z,23.07
2019-01-23T07:11:02.170Z,24.43
2019-01-23T07:13:48.769Z,24.43
2019-01-23T07:16:35.421Z,25.80
2019-01-23T07:19:21.829Z,27.70
2019-01-23T07:21:48.760Z,26.53
2019-01-23T07:24:35.368Z,29.27
2019-01-23T07:27:21.905Z,25.87
2019-01-23T07:29:48.804Z,24.57
2019-01-23T07:32:35.297Z,25.93
2019-01-23T07:35:21.835Z,27.43
2019-01-23T07:37:48.866Z,29.20
2019-01-23T07:40:35.389Z,26.83
2019-01-23T07:43:02.409Z,28.70
2019-01-23T07:45:49.158Z,27.63
2019-01-23T07:48:35.625Z,25.40
2019-01-23T07:51:22.356Z,28.93
2019-01-23T07:54:08.780Z,27.23
2019-01-23T07:56:55.372Z,29.67
2019-01-23T07:59:42.061Z,26.23
2019-01-23T08:02:09.454Z,24.80
2019-01-23T08:04:55.926Z,26.40
2019-01-23T08:07:23.030Z,27.33
2019-01-23T08:10:11.045Z,26.20
2019-01-23T08:12:38.153Z,27.50
2019-01-23T08:15:25.670Z,24.93
2019-01-23T08:18:12.207Z,23.27
2019-01-23T08:20:39.201Z,23.83
2019-01-23T08:23:06.355Z,23.40
2019-01-23T08:25:33.285Z,25.77
2019-01-23T08:28:00.501Z,23.13
2019-01-23T08:30:47.207Z,24.33
2019-01-23T08:33:14.564Z,22.90
2019-01-23T08:36:01.065Z,24.40
2019-01-23T08:38:47.676Z,21.77
2019-01-23T08:41:34.187Z,24.10
2019-01-23T08:44:20.778Z,24.03
2019-01-23T08:46:47.705Z,22.57
2019-01-23T08:49:14.657Z,26.47
2019-01-23T08:52:01.174Z,25.27
2019-01-23T08:54:27.974Z,21.70
2019-01-23T08:57:14.517Z,25.53
2019-01-23T09:00:01.371Z,24.53
2019-01-23T09:02:47.895Z,25.07
2019-01-23T09:05:14.869Z,25.30
2019-01-23T09:08:01.390Z,23.87
2019-01-23T09:13:42.684Z,22.63
2019-01-23T09:16:29.073Z,26.07
2019-01-23T09:19:15.473Z,23.03
2019-01-23T09:21:42.288Z,26.93
2019-01-23T09:24:09.249Z,27.17
2019-01-23T09:26:49.201Z,27.83
2019-01-23T09:29:29.523Z,25.83
2019-01-23T09:32:09.682Z,28.40
2019-01-23T09:34:58.818Z,26.40
2019-01-23T09:38:04.982Z,27.20
2019-01-23T09:41:11.262Z,28.43
2019-01-23T09:44:17.344Z,24.57
2019-01-23T09:47:07.721Z,28.23
2019-01-23T09:50:13.776Z,22.37
2019-01-23T09:53:02.799Z,27.27
2019-01-23T09:55:49.185Z,29.03
2019-01-23T09:58:35.876Z,25.63
2019-01-23T10:01:24.213Z,24.67
2019-01-23T10:04:10.792Z,30.03
2019-01-23T10:06:57.309Z,25.80
2019-01-23T10:09:43.916Z,26.10
2019-01-23T10:12:30.454Z,24.80
2019-01-23T10:14:57.457Z,26.70
2019-01-23T10:17:44.067Z,28.83
2019-01-23T10:20:30.781Z,27.53
2019-01-23T10:22:57.678Z,28.90
2019-01-23T10:25:37.764Z,28.07
2019-01-23T10:28:04.822Z,29.80
2019-01-23T10:30:51.549Z,25.93
2019-01-23T10:33:38.282Z,27.93
2019-01-23T10:36:05.660Z,31.47
2019-01-23T10:38:52.309Z,29.23
2019-01-23T10:41:19.197Z,28.57
2019-01-23T10:44:05.872Z,31.00
2019-01-23T10:46:52.569Z,27.80
2019-01-23T10:49:19.626Z,31.27
2019-01-23T10:52:06.438Z,31.37
2019-01-23T10:54:52.877Z,27.00
2019-01-23T10:57:39.380Z,28.60
2019-01-23T11:00:26.125Z,31.80
2019-01-23T11:02:53.437Z,30.70
2019-01-23T11:05:20.846Z,32.03
2019-01-23T11:07:47.889Z,28.07
2019-01-23T11:10:34.498Z,28.30
2019-01-23T11:13:21.099Z,27.17
2019-01-23T11:15:48.178Z,29.80
2019-01-23T11:18:15.139Z,30.60
2019-01-23T11:21:01.543Z,29.70
2019-01-23T11:23:28.560Z,31.27
2019-01-23T11:25:55.627Z,30.60
2019-01-23T11:28:22.597Z,31.70
2019-01-23T11:31:09.406Z,31.90
2019-01-23T11:33:56.006Z,32.80
2019-01-23T11:36:23.027Z,29.60
2019-01-23T11:38:50.033Z,31.40
2019-01-23T11:41:17.041Z,34.27
2019-01-23T11:44:03.702Z,30.00
2019-01-23T11:46:50.217Z,30.00
2019-01-23T11:49:36.635Z,31.77
2019-01-23T11:52:23.041Z,29.73
2019-01-23T11:55:09.604Z,32.50
2019-01-23T11:57:56.153Z,31.20
2019-01-23T12:00:42.656Z,30.57
2019-01-23T12:03:29.173Z,33.77
2019-01-23T12:06:15.719Z,34.90
2019-01-23T12:09:23.679Z,27.97
2019-01-23T12:12:10.212Z,36.10
2019-01-23T12:14:56.741Z,34.77
2019-01-23T12:17:43.389Z,33.37
2019-01-23T12:20:29.822Z,36.80
2019-01-23T12:22:57.238Z,51.67
2019-01-23T12:25:27.204Z,43.77
2019-01-23T12:28:14.599Z,33.03
2019-01-23T12:30:41.654Z,31.93
2019-01-23T12:33:28.181Z,31.07
2019-01-23T12:36:15.165Z,33.50
2019-01-23T12:42:10.177Z,27.80
2019-01-23T12:44:56.857Z,36.27
2019-01-23T12:47:43.422Z,32.27
2019-01-23T12:50:30.242Z,29.67
2019-01-23T12:53:16.689Z,30.73
2019-01-23T12:56:03.551Z,30.97
2019-01-23T12:58:30.758Z,30.67
2019-01-23T13:01:17.262Z,28.13
2019-01-23T13:04:03.841Z,28.80
2019-01-23T13:06:31.120Z,31.27
2019-01-23T13:09:17.976Z,30.90
2019-01-23T13:11:45.196Z,34.80
2019-01-23T13:14:31.659Z,28.97
2019-01-23T13:17:18.493Z,29.80
2019-01-23T13:20:06.378Z,28.73
2019-01-23T13:22:53.689Z,30.73
2019-01-23T13:25:33.403Z,28.13
2019-01-23T13:28:13.600Z,27.77
2019-01-23T13:30:53.720Z,27.90
2019-01-23T13:33:20.840Z,25.03
2019-01-23T13:36:08.405Z,28.47
2019-01-23T13:38:35.408Z,27.57
2019-01-23T13:41:22.089Z,27.33
2019-01-23T13:44:08.630Z,25.70
2019-01-23T13:46:55.197Z,29.07
2019-01-23T13:49:22.412Z,28.87
2019-01-23T13:52:08.926Z,29.80
2019-01-23T13:54:55.509Z,31.03
2019-01-23T13:57:22.281Z,29.03
2019-01-23T14:00:10.890Z,31.93
2019-01-23T14:02:57.400Z,30.43
2019-01-23T14:05:26.097Z,29.50
2019-01-23T14:07:53.082Z,31.80
2019-01-23T14:10:39.724Z,30.23
2019-01-23T14:13:06.734Z,31.23
2019-01-23T14:15:53.242Z,31.90
2019-01-23T14:18:39.761Z,31.33
2019-01-23T14:21:26.445Z,29.63
2019-01-23T14:24:12.961Z,30.07
2019-01-23T14:26:53.160Z,33.13
2019-01-23T14:29:33.406Z,31.10
2019-01-23T14:32:03.457Z,30.77
2019-01-23T14:34:48.734Z,32.20
2019-01-23T14:37:35.524Z,31.20
2019-01-23T14:40:22.041Z,34.63
2019-01-23T14:43:08.568Z,34.70
2019-01-23T14:45:35.623Z,33.20
2019-01-23T14:48:22.032Z,30.70
2019-01-23T14:51:08.548Z,35.97
2019-01-23T14:53:35.547Z,33.73
2019-01-23T14:56:22.077Z,33.17
2019-01-23T14:59:08.705Z,32.43
2019-01-23T15:01:55.406Z,34.97
2019-01-23T15:04:22.411Z,32.60
2019-01-23T15:07:08.913Z,34.30
2019-01-23T15:09:55.480Z,35.27
2019-01-23T15:12:22.499Z,32.27
2019-01-23T15:15:09.237Z,32.00
2019-01-23T15:17:56.067Z,32.47
2019-01-23T15:20:42.565Z,34.17
2019-01-23T15:23:29.181Z,37.33
2019-01-23T15:26:09.234Z,33.50
2019-01-23T15:28:48.470Z,32.47
2019-01-23T15:31:27.906Z,35.47
2019-01-23T15:34:07.965Z,35.70
2019-01-23T15:36:48.007Z,37.40
2019-01-23T15:39:27.399Z,35.03
2019-01-23T15:42:07.566Z,33.80
2019-01-23T15:44:34.958Z,37.57
2019-01-23T15:47:24.848Z,40.47
2019-01-23T15:50:12.658Z,35.07
2019-01-23T15:52:39.669Z,34.87
2019-01-23T15:55:26.221Z,40.37
2019-01-23T15:57:53.625Z,39.57
2019-01-23T16:00:41.630Z,39.90
2019-01-23T16:03:28.081Z,39.40
2019-01-23T16:05:55.100Z,37.77
2019-01-23T16:08:41.534Z,39.80
2019-01-23T16:11:28.296Z,38.13
2019-01-23T16:14:14.839Z,41.07
2019-01-23T16:17:01.262Z,41.67
2019-01-23T16:19:28.702Z,43.67
2019-01-23T16:22:15.236Z,40.37
2019-01-23T16:24:54.972Z,42.60
2019-01-23T16:27:35.101Z,43.53
2019-01-23T16:30:15.178Z,41.07
2019-01-23T16:32:55.133Z,40.57
2019-01-23T16:35:38.878Z,42.50
2019-01-23T16:38:26.166Z,40.27
2019-01-23T16:41:12.776Z,46.13
2019-01-23T16:43:59.404Z,42.87
2019-01-23T16:46:46.307Z,43.60
2019-01-23T16:49:13.351Z,40.47
2019-01-23T16:51:40.717Z,39.77
2019-01-23T16:54:27.575Z,40.00
2019-01-23T16:57:14.096Z,35.10
2019-01-23T17:00:00.910Z,35.77
2019-01-23T17:02:47.513Z,37.93
2019-01-23T17:05:18.741Z,36.57
2019-01-23T17:08:06.097Z,37.80
2019-01-23T17:10:33.253Z,39.83
2019-01-23T17:13:21.171Z,34.40
2019-01-23T17:22:17.323Z,38.03
2019-01-23T17:24:46.169Z,43.17
2019-01-23T17:27:42.024Z,43.93
2019-01-23T17:30:52.558Z,39.87
2019-01-23T17:33:39.521Z,36.70
2019-01-23T17:36:26.373Z,36.33
2019-01-23T17:39:12.929Z,34.60
2019-01-23T17:41:59.519Z,39.67
2019-01-23T17:44:46.381Z,36.07
2019-01-23T17:47:13.474Z,35.03
2019-01-23T17:50:00.278Z,35.93
2019-01-23T17:52:47.526Z,34.43
2019-01-23T17:55:18.149Z,36.73
2019-01-23T17:58:06.071Z,33.63
2019-01-23T18:01:12.856Z,34.77
2019-01-23T18:03:59.526Z,32.97
2019-01-23T18:06:26.910Z,33.70
2019-01-23T18:08:53.870Z,35.47
2019-01-23T18:11:40.399Z,31.60
2019-01-23T18:14:27.361Z,34.10
2019-01-23T18:17:13.918Z,35.50
2019-01-23T18:20:00.544Z,34.30
2019-01-23T18:22:47.080Z,33.67
2019-01-23T18:25:27.151Z,37.53
2019-01-23T18:28:07.149Z,33.07
2019-01-23T18:30:47.192Z,34.13
2019-01-23T18:33:27.113Z,33.33
2019-01-23T18:36:07.373Z,33.17
2019-01-23T18:38:47.159Z,37.80
2019-01-23T18:41:27.188Z,31.97
2019-01-23T18:44:09.887Z,35.53
2019-01-23T18:46:49.411Z,35.57
2019-01-23T18:49:29.069Z,34.00
2019-01-23T18:52:08.390Z,36.63
2019-01-23T18:54:48.711Z,34.07
2019-01-23T18:57:28.501Z,31.40
2019-01-23T19:00:08.036Z,30.63
2019-01-23T19:02:35.391Z,33.23
2019-01-23T19:08:30.318Z,29.83
2019-01-23T19:11:17.153Z,33.43
2019-01-23T19:14:03.930Z,35.60
2019-01-23T19:16:51.406Z,32.67
2019-01-23T19:19:18.540Z,33.33
2019-01-23T19:21:45.812Z,30.80
2019-01-23T19:24:25.919Z,34.00
2019-01-23T19:26:53.281Z,34.40
2019-01-23T19:29:39.808Z,35.57
2019-01-23T19:32:06.851Z,33.30
2019-01-23T19:34:35.072Z,36.17
2019-01-23T19:37:02.288Z,36.93
2019-01-23T19:39:29.592Z,34.60
2019-01-23T19:41:56.686Z,33.53
2019-01-23T19:44:44.660Z,32.83
2019-01-23T19:47:32.093Z,34.73
2019-01-23T19:49:59.125Z,33.00
2019-01-23T19:52:45.718Z,34.43
2019-01-23T19:55:32.261Z,33.67
2019-01-23T19:57:59.057Z,36.17
2019-01-23T20:00:45.734Z,34.43
2019-01-23T20:03:12.756Z,36.93
2019-01-23T20:05:39.781Z,34.70
2019-01-23T20:08:26.726Z,34.30
2019-01-23T20:11:13.381Z,34.63
2019-01-23T20:13:59.821Z,32.43
2019-01-23T20:16:46.260Z,34.87
2019-01-23T20:19:13.656Z,37.70
2019-01-23T20:22:00.109Z,37.13
2019-01-23T20:24:39.750Z,32.33
2019-01-23T20:27:07.068Z,32.70
2019-01-23T20:29:34.288Z,37.73
2019-01-23T20:32:21.196Z,39.37
2019-01-23T20:35:08.808Z,34.47
2019-01-23T20:37:55.470Z,34.80
2019-01-23T20:40:42.371Z,32.63
2019-01-23T20:43:29.934Z,34.23
2019-01-23T20:46:17.547Z,34.30
2019-01-23T20:48:45.004Z,38.10
2019-01-23T20:51:31.646Z,42.43
2019-01-23T20:54:20.412Z,44.60
2019-01-23T20:56:47.450Z,52.87
2019-01-23T20:59:34.233Z,48.30
2019-01-23T21:02:20.771Z,46.33
2019-01-23T21:04:47.822Z,40.87
2019-01-23T21:07:34.345Z,37.50
2019-01-23T21:10:21.453Z,38.57
2019-01-23T21:13:08.037Z,35.83
2019-01-23T21:15:54.469Z,35.40
2019-01-23T21:18:41.136Z,36.27
2019-01-23T21:21:27.812Z,36.97
2019-01-23T21:24:14.564Z,34.53
2019-01-23T21:26:54.112Z,37.70
2019-01-23T21:29:34.204Z,34.97
2019-01-23T21:32:14.326Z,40.23
2019-01-23T21:34:53.569Z,36.77
2019-01-23T21:37:20.564Z,38.17
2019-01-23T21:39:47.941Z,43.67
2019-01-23T21:42:34.503Z,35.60
2019-01-23T21:45:21.006Z,39.90
2019-01-23T21:48:07.650Z,36.07
2019-01-23T21:50:54.446Z,35.10
2019-01-23T21:53:41.294Z,34.73
2019-01-23T21:56:28.065Z,34.90
2019-01-23T21:59:14.650Z,34.93
2019-01-23T22:02:01.472Z,36.03
2019-01-23T22:04:48.058Z,39.10
2019-01-23T22:07:34.470Z,36.07
2019-01-23T22:10:21.222Z,34.00
2019-01-23T22:13:07.997Z,38.40
2019-01-23T22:15:54.564Z,35.93
2019-01-23T22:18:41.139Z,34.40
2019-01-23T22:21:27.664Z,36.67
2019-01-23T22:24:14.194Z,33.67
2019-01-23T22:26:54.182Z,37.30
2019-01-23T22:29:34.393Z,38.87
2019-01-23T22:32:13.787Z,40.80
2019-01-23T22:34:54.148Z,39.90
2019-01-23T22:37:34.120Z,43.07
2019-01-23T22:40:14.278Z,43.10
2019-01-23T22:42:54.328Z,38.70
2019-01-23T22:45:34.371Z,36.43
2019-01-23T22:48:14.656Z,38.07
2019-01-23T22:50:54.484Z,34.17
2019-01-23T22:53:34.637Z,38.00
2019-01-23T22:56:14.542Z,39.80
2019-01-23T22:58:54.518Z,36.57
2019-01-23T23:01:41.157Z,38.17
2019-01-23T23:04:27.960Z,36.67
2019-01-23T23:07:15.046Z,36.27
2019-01-23T23:10:01.681Z,34.23
2019-01-23T23:12:28.736Z,35.10
2019-01-23T23:15:15.554Z,40.27
2019-01-23T23:18:02.167Z,35.70
2019-01-23T23:20:48.666Z,35.23
2019-01-23T23:23:35.420Z,34.53
2019-01-23T23:26:14.699Z,34.73
2019-01-23T23:28:54.998Z,38.30
2019-01-23T23:31:35.293Z,34.43
2019-01-23T23:34:15.346Z,39.43
2019-01-23T23:36:55.293Z,36.07
2019-01-23T23:39:22.569Z,36.77
2019-01-23T23:42:09.086Z,34.03
2019-01-23T23:44:55.483Z,35.57
2019-01-23T23:47:42.081Z,39.23
2019-01-23T23:50:28.472Z,34.10
2019-01-23T23:53:14.977Z,37.80
2019-01-23T23:56:01.479Z,34.40
2019-01-23T23:58:47.899Z,36.57
